createdAt,value
2018-06-13T00:01:28.252Z,59.10
2018-06-13T00:03:56.760Z,59.10
2018-06-13T00:08:54.490Z,59.20
2018-06-13T00:11:22.994Z,59.10
2018-06-13T00:13:51.503Z,59.10
2018-06-13T00:18:48.236Z,59.10
2018-06-13T00:21:16.774Z,59.10
2018-06-13T00:23:45.314Z,59.10
2018-06-13T00:26:13.843Z,59.10
2018-06-13T00:28:42.474Z,59.00
2018-06-13T00:31:10.997Z,59.10
2018-06-13T00:33:39.522Z,58.50
2018-06-13T00:36:08.104Z,59.00
2018-06-13T00:38:36.655Z,59.00
2018-06-13T00:41:05.211Z,59.00
2018-06-13T00:43:33.751Z,59.00
2018-06-13T00:46:02.346Z,59.00
2018-06-13T00:48:30.903Z,59.00
2018-06-13T00:50:59.511Z,59.00
2018-06-13T00:53:28.066Z,59.00
2018-06-13T00:56:07.842Z,59.00
2018-06-13T00:58:37.394Z,59.00
2018-06-13T01:01:06.087Z,59.00
2018-06-13T01:03:36.685Z,59.00
2018-06-13T01:06:05.314Z,59.00
2018-06-13T01:08:33.874Z,59.00
2018-06-13T01:11:02.443Z,59.00
2018-06-13T01:13:30.995Z,59.00
2018-06-13T01:15:59.555Z,59.00
2018-06-13T01:18:28.127Z,59.00
2018-06-13T01:20:56.668Z,59.10
2018-06-13T01:23:25.242Z,59.10
2018-06-13T01:25:53.780Z,59.10
2018-06-13T01:28:22.354Z,59.10
2018-06-13T01:30:50.943Z,59.10
2018-06-13T01:33:19.498Z,59.10
2018-06-13T01:35:48.048Z,59.10
2018-06-13T01:38:16.613Z,59.10
2018-06-13T01:43:13.408Z,59.10
2018-06-13T01:45:41.983Z,59.10
2018-06-13T01:48:10.716Z,59.10
2018-06-13T01:50:47.887Z,59.10
2018-06-13T01:53:17.975Z,58.80
2018-06-13T01:55:47.543Z,59.20
2018-06-13T01:58:16.195Z,59.20
2018-06-13T02:00:44.745Z,59.20
2018-06-13T02:03:13.479Z,59.20
2018-06-13T02:05:42.035Z,59.20
2018-06-13T02:08:10.618Z,59.20
2018-06-13T02:10:39.167Z,59.20
2018-06-13T02:13:07.698Z,59.20
2018-06-13T02:15:36.250Z,59.20
2018-06-13T02:18:04.818Z,59.80
2018-06-13T02:20:33.367Z,59.20
2018-06-13T02:23:01.952Z,59.20
2018-06-13T02:25:30.519Z,59.20
2018-06-13T02:27:59.092Z,59.20
2018-06-13T02:30:27.632Z,59.10
2018-06-13T02:35:48.969Z,59.10
2018-06-13T02:38:17.239Z,59.10
2018-06-13T02:40:45.435Z,59.10
2018-06-13T02:43:13.666Z,59.10
2018-06-13T02:45:41.901Z,59.20
2018-06-13T02:48:10.144Z,59.10
2018-06-13T02:50:38.432Z,59.10
2018-06-13T02:53:06.618Z,59.10
2018-06-13T02:55:34.894Z,59.10
2018-06-13T02:58:03.155Z,59.10
2018-06-13T03:00:31.391Z,59.10
2018-06-13T03:02:59.622Z,59.10
2018-06-13T03:05:27.866Z,59.10
2018-06-13T03:07:56.115Z,59.10
2018-06-13T03:10:24.350Z,59.00
2018-06-13T03:12:52.606Z,59.10
2018-06-13T03:15:21.860Z,59.10
2018-06-13T03:17:50.095Z,59.30
2018-06-13T03:20:18.326Z,59.00
2018-06-13T03:22:46.615Z,59.00
2018-06-13T03:25:14.887Z,59.00
2018-06-13T03:27:43.138Z,59.00
2018-06-13T03:30:11.374Z,59.00
2018-06-13T03:32:39.610Z,59.00
2018-06-13T03:35:08.881Z,59.00
2018-06-13T03:37:37.122Z,59.00
2018-06-13T03:40:05.357Z,59.00
2018-06-13T03:42:33.610Z,59.00
2018-06-13T03:45:01.857Z,59.00
2018-06-13T03:47:30.097Z,59.00
2018-06-13T03:49:59.339Z,59.00
2018-06-13T03:52:27.582Z,59.00
2018-06-13T03:54:57.888Z,59.00
2018-06-13T03:57:26.182Z,59.00
2018-06-13T03:59:54.474Z,59.00
2018-06-13T04:02:22.705Z,59.00
2018-06-13T04:04:50.942Z,59.00
2018-06-13T04:07:19.505Z,58.90
2018-06-13T04:09:47.639Z,58.90
2018-06-13T04:12:15.862Z,58.90
2018-06-13T04:14:44.100Z,58.90
2018-06-13T04:19:41.306Z,58.90
2018-06-13T04:22:09.527Z,58.90
2018-06-13T04:24:37.756Z,58.90
2018-06-13T04:27:05.986Z,58.90
2018-06-13T04:32:02.185Z,58.90
2018-06-13T04:34:30.454Z,58.90
2018-06-13T04:36:58.670Z,58.90
2018-06-13T04:39:26.923Z,58.90
2018-06-13T04:41:55.190Z,58.90
2018-06-13T04:44:24.442Z,58.90
2018-06-13T04:46:52.666Z,58.90
2018-06-13T04:49:20.927Z,58.80
2018-06-13T04:51:49.155Z,58.90
2018-06-13T04:54:17.377Z,58.80
2018-06-13T04:56:45.644Z,58.80
2018-06-13T04:59:13.899Z,58.80
2018-06-13T05:01:42.141Z,58.80
2018-06-13T05:06:39.358Z,58.80
2018-06-13T05:09:08.198Z,58.80
2018-06-13T05:11:36.496Z,58.70
2018-06-13T05:14:04.722Z,58.70
2018-06-13T05:16:34.983Z,58.70
2018-06-13T05:19:03.223Z,58.70
2018-06-13T05:21:31.457Z,58.70
2018-06-13T05:23:59.683Z,58.70
2018-06-13T05:26:28.935Z,58.70
2018-06-13T05:28:57.162Z,59.40
2018-06-13T05:31:25.375Z,58.70
2018-06-13T05:33:53.609Z,58.70
2018-06-13T05:36:21.843Z,58.70
2018-06-13T05:38:50.112Z,58.70
2018-06-13T05:41:20.390Z,58.70
2018-06-13T05:43:48.696Z,58.70
2018-06-13T05:46:16.911Z,58.70
2018-06-13T05:48:45.170Z,58.70
2018-06-13T05:51:13.430Z,58.70
2018-06-13T05:53:41.654Z,58.70
2018-06-13T06:01:06.816Z,58.70
2018-06-13T06:03:35.030Z,58.70
2018-06-13T06:06:03.279Z,58.70
2018-06-13T06:08:32.533Z,58.70
2018-06-13T06:13:28.765Z,58.70
2018-06-13T06:15:56.988Z,58.70
2018-06-13T06:18:25.264Z,58.70
2018-06-13T06:20:53.442Z,58.70
2018-06-13T06:23:21.666Z,58.70
2018-06-13T06:30:45.842Z,58.70
2018-06-13T06:33:15.161Z,58.70
2018-06-13T06:35:43.406Z,58.70
2018-06-13T06:38:11.664Z,58.60
2018-06-13T06:40:39.989Z,58.70
2018-06-13T06:43:08.229Z,58.60
2018-06-13T06:45:37.484Z,58.00
2018-06-13T06:48:06.039Z,58.50
2018-06-13T06:50:34.426Z,58.60
2018-06-13T06:53:02.657Z,58.50
2018-06-13T06:55:30.955Z,58.60
2018-06-13T06:58:00.156Z,58.50
2018-06-13T07:00:28.382Z,58.50
2018-06-13T07:02:56.634Z,58.70
2018-06-13T07:05:24.875Z,58.50
2018-06-13T07:07:53.098Z,58.50
2018-06-13T07:10:21.363Z,58.50
2018-06-13T07:12:51.668Z,58.50
2018-06-13T07:15:19.899Z,58.50
2018-06-13T07:17:50.173Z,58.50
2018-06-13T07:22:47.412Z,58.50
2018-06-13T07:25:15.714Z,58.50
2018-06-13T07:27:45.036Z,58.50
2018-06-13T07:30:13.262Z,58.40
2018-06-13T07:32:41.495Z,58.50
2018-06-13T07:35:09.718Z,58.50
2018-06-13T07:37:37.988Z,58.50
2018-06-13T07:40:06.472Z,58.50
2018-06-13T07:42:34.773Z,58.40
2018-06-13T07:45:04.018Z,58.40
2018-06-13T07:47:32.274Z,58.40
2018-06-13T07:50:00.530Z,58.40
2018-06-13T07:52:28.759Z,58.40
2018-06-13T07:54:57.008Z,58.40
2018-06-13T07:57:25.250Z,58.40
2018-06-13T07:59:53.484Z,58.40
2018-06-13T08:02:21.808Z,58.40
2018-06-13T08:04:50.028Z,58.40
2018-06-13T08:07:18.258Z,58.30
2018-06-13T08:09:47.493Z,58.30
2018-06-13T08:12:15.726Z,58.40
2018-06-13T08:14:44.962Z,58.40
2018-06-13T08:17:13.237Z,58.30
2018-06-13T08:19:41.846Z,58.30
2018-06-13T08:22:11.102Z,58.30
2018-06-13T08:24:51.374Z,58.30
2018-06-13T08:27:19.790Z,58.30
2018-06-13T08:32:16.057Z,58.30
2018-06-13T08:34:45.306Z,58.30
2018-06-13T08:37:13.562Z,58.30
2018-06-13T08:39:42.835Z,58.30
2018-06-13T08:42:13.127Z,58.30
2018-06-13T08:47:09.302Z,58.20
2018-06-13T08:49:37.538Z,58.20
2018-06-13T08:52:05.763Z,58.20
2018-06-13T08:54:34.024Z,58.20
2018-06-13T08:57:02.246Z,58.20
2018-06-13T08:59:30.494Z,58.20
2018-06-13T09:01:58.735Z,58.20
2018-06-13T09:04:26.970Z,58.20
2018-06-13T09:09:23.190Z,58.20
2018-06-13T09:11:51.424Z,58.20
2018-06-13T09:14:19.661Z,58.80
2018-06-13T09:16:47.957Z,58.20
2018-06-13T09:19:16.211Z,58.50
2018-06-13T09:21:44.470Z,58.20
2018-06-13T09:24:12.691Z,58.10
2018-06-13T09:26:40.926Z,58.10
2018-06-13T09:34:05.146Z,58.20
2018-06-13T09:36:33.414Z,58.10
2018-06-13T09:39:01.673Z,57.90
2018-06-13T09:41:29.916Z,58.20
2018-06-13T09:43:58.164Z,58.20
2018-06-13T09:46:28.407Z,58.20
2018-06-13T09:48:56.774Z,58.10
2018-06-13T09:51:25.015Z,58.10
2018-06-13T09:53:53.253Z,58.10
2018-06-13T09:56:21.486Z,58.10
2018-06-13T09:58:55.131Z,58.10
2018-06-13T10:01:28.827Z,58.10
2018-06-13T10:03:57.140Z,58.10
2018-06-13T10:08:53.323Z,58.00
2018-06-13T10:11:21.550Z,58.10
2018-06-13T10:13:51.781Z,58.10
2018-06-13T10:16:20.019Z,58.10
2018-06-13T10:18:48.251Z,58.80
2018-06-13T10:21:16.497Z,58.10
2018-06-13T10:23:44.759Z,58.20
2018-06-13T10:26:12.970Z,58.20
2018-06-13T10:28:41.207Z,58.10
2018-06-13T10:31:09.465Z,58.10
2018-06-13T10:33:37.702Z,58.10
2018-06-13T10:36:05.914Z,58.00
2018-06-13T10:38:34.148Z,58.10
2018-06-13T10:41:02.379Z,58.00
2018-06-13T10:43:30.614Z,58.00
2018-06-13T10:45:58.863Z,58.00
2018-06-13T10:48:27.105Z,58.00
2018-06-13T10:50:55.366Z,57.90
2018-06-13T10:53:23.619Z,57.90
2018-06-13T10:55:53.896Z,57.90
2018-06-13T10:58:22.138Z,57.90
2018-06-13T11:00:50.374Z,57.90
2018-06-13T11:03:18.615Z,57.90
2018-06-13T11:08:15.803Z,58.00
2018-06-13T11:10:44.042Z,57.90
2018-06-13T11:13:12.292Z,57.90
2018-06-13T11:15:40.555Z,58.20
2018-06-13T11:18:08.849Z,57.90
2018-06-13T11:20:37.125Z,57.80
2018-06-13T11:23:05.405Z,57.90
2018-06-13T11:25:34.650Z,58.50
2018-06-13T11:28:03.914Z,57.90
2018-06-13T11:30:32.170Z,57.90
2018-06-13T11:33:00.378Z,58.50
2018-06-13T11:35:28.617Z,57.90
2018-06-13T11:37:56.834Z,57.90
2018-06-13T11:40:25.073Z,57.90
2018-06-13T11:42:53.315Z,57.90
2018-06-13T11:45:22.574Z,57.90
2018-06-13T11:47:50.821Z,57.90
2018-06-13T11:50:19.089Z,57.90
2018-06-13T11:52:47.334Z,57.90
2018-06-13T11:55:16.590Z,57.90
2018-06-13T11:57:44.836Z,57.90
2018-06-13T12:00:13.093Z,57.90
2018-06-13T12:02:41.354Z,57.80
2018-06-13T12:05:09.605Z,57.80
2018-06-13T12:07:37.842Z,57.80
2018-06-13T12:10:06.111Z,57.80
2018-06-13T12:12:41.010Z,57.70
2018-06-13T12:15:09.280Z,57.80
2018-06-13T12:17:38.490Z,57.70
2018-06-13T12:20:06.764Z,57.70
2018-06-13T12:22:35.045Z,57.70
2018-06-13T12:25:03.285Z,57.70
2018-06-13T12:27:31.544Z,57.70
2018-06-13T12:29:59.778Z,57.70
2018-06-13T12:32:28.019Z,57.70
2018-06-13T12:34:56.255Z,57.70
2018-06-13T12:39:53.532Z,58.00
2018-06-13T12:42:21.774Z,57.70
2018-06-13T12:44:50.014Z,57.70
2018-06-13T12:47:18.279Z,57.60
2018-06-13T12:49:46.496Z,57.60
2018-06-13T12:52:14.740Z,57.60
2018-06-13T12:54:43.446Z,57.60
2018-06-13T12:57:11.703Z,57.60
2018-06-13T12:59:39.946Z,57.50
2018-06-13T13:02:08.203Z,57.50
2018-06-13T13:04:36.444Z,57.50
2018-06-13T13:07:04.661Z,57.60
2018-06-13T13:12:01.894Z,58.20
2018-06-13T13:14:30.177Z,58.10
2018-06-13T13:16:58.406Z,57.50
2018-06-13T13:19:26.622Z,57.50
2018-06-13T13:21:54.923Z,57.50
2018-06-13T13:24:23.182Z,57.50
2018-06-13T13:26:51.425Z,57.50
2018-06-13T13:29:19.635Z,57.60
2018-06-13T13:39:12.867Z,57.60
2018-06-13T13:41:41.318Z,57.60
2018-06-13T13:44:10.023Z,57.60
2018-06-13T13:46:39.268Z,57.60
2018-06-13T13:49:07.494Z,57.60
2018-06-13T13:51:35.734Z,57.60
2018-06-13T13:54:04.033Z,57.60
2018-06-13T13:56:32.212Z,57.60
2018-06-13T13:59:00.482Z,57.60
2018-06-13T14:01:29.842Z,57.60
2018-06-13T14:03:58.083Z,57.50
2018-06-13T14:06:26.338Z,57.60
2018-06-13T14:08:54.594Z,57.50
2018-06-13T14:13:51.223Z,57.50
2018-06-13T14:16:19.510Z,57.50
2018-06-13T14:18:47.743Z,57.50
2018-06-13T14:21:16.000Z,57.50
2018-06-13T14:23:45.042Z,57.50
2018-06-13T14:26:13.278Z,57.50
2018-06-13T14:28:42.527Z,56.90
2018-06-13T14:31:11.758Z,57.50
2018-06-13T14:33:39.981Z,57.50
2018-06-13T14:36:08.299Z,57.50
2018-06-13T14:38:36.546Z,57.50
2018-06-13T14:41:04.766Z,57.50
2018-06-13T14:43:33.018Z,57.50
2018-06-13T14:46:01.257Z,57.50
2018-06-13T14:48:31.542Z,57.50
2018-06-13T14:50:59.762Z,57.50
2018-06-13T14:53:28.446Z,57.50
2018-06-13T14:56:02.014Z,58.10
2018-06-13T14:58:30.539Z,57.40
2018-06-13T15:03:26.894Z,57.50
2018-06-13T15:05:55.142Z,57.40
2018-06-13T15:08:23.373Z,57.40
2018-06-13T15:10:51.610Z,57.40
2018-06-13T15:13:19.875Z,58.00
2018-06-13T15:15:49.145Z,57.40
2018-06-13T15:18:17.383Z,57.40
2018-06-13T15:20:45.630Z,57.40
2018-06-13T15:25:41.834Z,57.40
2018-06-13T15:28:10.123Z,57.40
2018-06-13T15:30:38.358Z,57.40
2018-06-13T15:33:06.627Z,57.40
2018-06-13T15:35:34.901Z,57.40
2018-06-13T15:38:03.122Z,57.40
2018-06-13T15:40:31.366Z,57.40
2018-06-13T15:42:59.787Z,57.40
2018-06-13T15:45:28.014Z,57.40
2018-06-13T15:47:56.279Z,57.30
2018-06-13T15:50:24.596Z,57.40
2018-06-13T15:52:53.099Z,57.40
2018-06-13T15:57:49.325Z,57.40
2018-06-13T16:00:17.574Z,57.30
2018-06-13T16:02:45.841Z,57.30
2018-06-13T16:05:14.180Z,57.40
2018-06-13T16:07:42.503Z,57.40
2018-06-13T16:10:10.780Z,57.40
2018-06-13T16:12:40.067Z,57.40
2018-06-13T16:15:08.332Z,57.40
2018-06-13T16:17:36.613Z,57.40
2018-06-13T16:20:06.299Z,57.40
2018-06-13T16:22:34.542Z,57.40
2018-06-13T16:25:02.766Z,57.40
2018-06-13T16:27:31.010Z,57.40
2018-06-13T16:29:59.255Z,57.40
2018-06-13T16:32:29.520Z,57.40
2018-06-13T16:34:57.767Z,57.30
2018-06-13T16:37:26.028Z,57.30
2018-06-13T16:39:54.308Z,57.30
2018-06-13T16:42:22.595Z,57.30
2018-06-13T16:47:18.802Z,57.30
2018-06-13T16:49:47.044Z,57.30
2018-06-13T16:52:26.810Z,58.00
2018-06-13T16:55:19.835Z,57.40
2018-06-13T16:57:49.804Z,57.30
2018-06-13T17:00:18.818Z,57.40
2018-06-13T17:02:48.422Z,57.30
2018-06-13T17:05:16.805Z,57.30
2018-06-13T17:07:45.237Z,57.20
2018-06-13T17:12:43.494Z,57.30
2018-06-13T17:15:12.784Z,57.30
2018-06-13T17:17:40.995Z,57.20
2018-06-13T17:20:10.293Z,57.30
2018-06-13T17:22:38.571Z,57.20
2018-06-13T17:25:06.801Z,57.20
2018-06-13T17:27:35.105Z,57.20
2018-06-13T17:30:03.291Z,57.20
2018-06-13T17:32:31.555Z,57.10
2018-06-13T17:34:59.882Z,57.10
2018-06-13T17:39:56.098Z,57.10
2018-06-13T17:42:24.340Z,57.60
2018-06-13T17:44:52.575Z,57.00
2018-06-13T17:47:21.836Z,57.00
2018-06-13T17:49:50.141Z,57.00
2018-06-13T17:52:18.403Z,56.90
2018-06-13T17:54:46.654Z,56.90
2018-06-13T17:57:14.930Z,56.90
2018-06-13T17:59:43.170Z,56.90
2018-06-13T18:02:12.482Z,56.90
2018-06-13T18:04:40.768Z,56.90
2018-06-13T18:07:08.998Z,56.90
2018-06-13T18:09:37.365Z,56.90
2018-06-13T18:12:05.758Z,56.90
2018-06-13T18:17:03.043Z,56.90
2018-06-13T18:19:31.287Z,56.90
2018-06-13T18:22:00.183Z,56.90
2018-06-13T18:24:28.426Z,57.00
2018-06-13T18:26:56.699Z,56.90
2018-06-13T18:29:24.956Z,56.90
2018-06-13T18:31:53.186Z,56.90
2018-06-13T18:34:22.486Z,56.90
2018-06-13T18:36:50.754Z,56.90
2018-06-13T18:39:19.002Z,56.90
2018-06-13T18:41:47.237Z,56.80
2018-06-13T18:44:15.477Z,57.00
2018-06-13T18:46:43.716Z,56.80
2018-06-13T18:49:11.962Z,56.80
2018-06-13T18:51:40.345Z,56.80
2018-06-13T18:54:08.682Z,56.80
2018-06-13T18:59:04.986Z,56.80
2018-06-13T19:01:33.247Z,56.80
2018-06-13T19:04:01.481Z,56.80
2018-06-13T19:06:29.698Z,56.80
2018-06-13T19:08:57.954Z,56.80
2018-06-13T19:11:26.214Z,56.80
2018-06-13T19:13:54.450Z,56.80
2018-06-13T19:16:22.684Z,56.80
2018-06-13T19:18:50.958Z,56.80
2018-06-13T19:21:19.548Z,56.80
2018-06-13T19:23:47.742Z,56.80
2018-06-13T19:26:15.977Z,56.80
2018-06-13T19:28:44.225Z,57.50
2018-06-13T19:31:13.465Z,56.80
2018-06-13T19:33:41.714Z,56.80
2018-06-13T19:36:09.967Z,56.80
2018-06-13T19:38:38.674Z,56.80
2018-06-13T19:41:06.982Z,56.80
2018-06-13T19:43:42.182Z,56.80
2018-06-13T19:46:11.491Z,56.70
2018-06-13T19:48:45.196Z,56.80
2018-06-13T19:51:13.433Z,56.80
2018-06-13T19:53:47.057Z,56.80
2018-06-13T19:56:17.366Z,56.80
2018-06-13T19:58:47.627Z,56.80
2018-06-13T20:01:16.018Z,56.80
2018-06-13T20:04:47.290Z,56.70
2018-06-13T20:07:15.534Z,56.20
2018-06-13T20:09:43.800Z,56.80
2018-06-13T20:12:54.730Z,56.80
2018-06-13T20:15:28.448Z,56.80
2018-06-13T20:18:02.053Z,56.80
2018-06-13T20:20:31.350Z,56.80
2018-06-13T20:22:59.659Z,56.80
2018-06-13T20:25:33.411Z,56.80
2018-06-13T20:28:07.140Z,56.80
2018-06-13T20:30:41.983Z,56.80
2018-06-13T20:33:10.262Z,56.80
2018-06-13T20:35:38.515Z,56.80
2018-06-13T20:38:06.739Z,56.80
2018-06-13T20:40:34.985Z,56.70
2018-06-13T20:43:03.243Z,56.70
2018-06-13T20:45:31.703Z,56.70
2018-06-13T20:48:00.974Z,56.70
2018-06-13T20:50:29.221Z,56.70
2018-06-13T20:52:57.482Z,56.70
2018-06-13T20:55:25.737Z,56.70
2018-06-13T20:57:54.097Z,56.70
2018-06-13T21:00:22.413Z,56.70
2018-06-13T21:02:50.653Z,56.80
2018-06-13T21:07:46.918Z,56.70
2018-06-13T21:10:15.192Z,56.70
2018-06-13T21:12:43.435Z,56.70
2018-06-13T21:15:11.662Z,56.70
2018-06-13T21:17:39.960Z,56.70
2018-06-13T21:20:08.199Z,56.60
2018-06-13T21:22:36.486Z,56.60
2018-06-13T21:25:04.730Z,56.70
2018-06-13T21:27:32.969Z,56.60
2018-06-13T21:30:01.246Z,56.60
2018-06-13T21:32:29.487Z,56.60
2018-06-13T21:34:58.831Z,56.60
2018-06-13T21:37:27.019Z,56.60
2018-06-13T21:39:55.356Z,56.60
2018-06-13T21:42:23.586Z,56.60
2018-06-13T21:44:53.982Z,56.60
2018-06-13T21:47:22.225Z,56.50
2018-06-13T21:49:50.494Z,56.60
2018-06-13T21:52:18.737Z,56.60
2018-06-13T21:54:46.953Z,56.60
2018-06-13T21:57:15.195Z,56.50
2018-06-13T21:59:43.519Z,56.50
2018-06-13T22:02:12.794Z,56.50
2018-06-13T22:04:42.069Z,57.10
2018-06-13T22:07:11.333Z,56.50
2018-06-13T22:12:07.519Z,56.50
2018-06-13T22:14:35.742Z,56.50
2018-06-13T22:17:03.970Z,56.50
2018-06-13T22:19:32.217Z,56.50
2018-06-13T22:22:00.466Z,56.40
2018-06-13T22:24:28.690Z,56.50
2018-06-13T22:26:56.924Z,57.00
2018-06-13T22:31:54.137Z,56.50
2018-06-13T22:34:22.352Z,56.50
2018-06-13T22:36:50.574Z,56.50
2018-06-13T22:39:18.807Z,56.50
2018-06-13T22:41:47.090Z,56.50
2018-06-13T22:44:15.309Z,56.50
2018-06-13T22:46:43.601Z,56.50
2018-06-13T22:49:11.828Z,56.50
2018-06-13T22:51:40.090Z,56.50
2018-06-13T22:54:08.318Z,56.50
2018-06-13T22:56:36.562Z,56.50
2018-06-13T22:59:05.825Z,56.40
2018-06-13T23:04:02.027Z,56.50
2018-06-13T23:06:30.289Z,56.50
2018-06-13T23:08:59.542Z,56.50
2018-06-13T23:11:27.771Z,56.50
2018-06-13T23:13:56.022Z,56.40
2018-06-13T23:16:24.270Z,56.40
2018-06-13T23:21:21.667Z,56.40
2018-06-13T23:23:49.969Z,56.40
2018-06-13T23:26:18.234Z,56.40
2018-06-13T23:28:48.557Z,56.40
2018-06-13T23:31:16.786Z,56.40
2018-06-13T23:33:46.005Z,56.40
2018-06-13T23:36:14.234Z,56.40
2018-06-13T23:38:42.478Z,56.40
2018-06-13T23:41:11.722Z,56.40
2018-06-13T23:43:40.966Z,56.40
2018-06-13T23:46:09.226Z,56.40
2018-06-13T23:48:37.475Z,56.40
2018-06-13T23:51:05.711Z,56.40
2018-06-13T23:53:33.947Z,56.40
2018-06-13T23:56:02.161Z,56.40
2018-06-13T23:58:30.394Z,56.40
